Terminal Aerodrome Forecast
Issued by NWS

Home | Current Version | Previous Version | Graphics & Text | Print | Product List | Glossary On
Versions: 1 2 3 4 5 6 7 8 9 10 11 12 13 14 15 16 17 18 19 20 21 22 23 24 25 26 27 28 29 30 31
358
FTUS43 KLOT 142057 AAA
TAFORD
TAF AMD
KORD 142057Z 1421/1524 32006KT P6SM OVC040
     FM142300 30005KT P6SM FEW035 SCT250
     FM151100 29002KT P6SM BKN200
     FM152100 17004KT P6SM BKN200=

USA.gov is the U.S. government's official web portal to all federal, state and local government web resources and services.